sensor_id;sensor_type;location;lat;lon;timestamp;temperature;humidity
22968;DHT22;11650;48.106;-1.696;2023-04-03T00:01:15;6.90;99.90
22968;DHT22;11650;48.106;-1.696;2023-04-03T00:03:41;6.80;99.90
22968;DHT22;11650;48.106;-1.696;2023-04-03T00:06:08;6.80;99.90
22968;DHT22;11650;48.106;-1.696;2023-04-03T00:08:36;6.70;99.90
22968;DHT22;11650;48.106;-1.696;2023-04-03T00:11:03;6.70;99.90
22968;DHT22;11650;48.106;-1.696;2023-04-03T00:13:28;6.80;99.90
22968;DHT22;11650;48.106;-1.696;2023-04-03T00:15:54;6.70;99.90
22968;DHT22;11650;48.106;-1.696;2023-04-03T00:18:20;6.70;99.90
22968;DHT22;11650;48.106;-1.696;2023-04-03T00:20:47;6.60;99.90
22968;DHT22;11650;48.106;-1.696;2023-04-03T00:23:12;6.60;99.90
22968;DHT22;11650;48.106;-1.696;2023-04-03T00:25:38;6.60;99.90
22968;DHT22;11650;48.106;-1.696;2023-04-03T00:28:04;6.50;99.90
22968;DHT22;11650;48.106;-1.696;2023-04-03T00:30:30;6.50;99.90
22968;DHT22;11650;48.106;-1.696;2023-04-03T00:32:56;6.40;99.90
22968;DHT22;11650;48.106;-1.696;2023-04-03T00:35:23;6.30;99.90
22968;DHT22;11650;48.106;-1.696;2023-04-03T00:37:51;6.40;99.90
22968;DHT22;11650;48.106;-1.696;2023-04-03T00:40:18;6.30;99.90
22968;DHT22;11650;48.106;-1.696;2023-04-03T00:42:47;6.30;99.90
22968;DHT22;11650;48.106;-1.696;2023-04-03T00:45:38;6.30;99.90
22968;DHT22;11650;48.106;-1.696;2023-04-03T00:48:07;6.30;99.90
22968;DHT22;11650;48.106;-1.696;2023-04-03T00:50:37;6.30;99.90
22968;DHT22;11650;48.106;-1.696;2023-04-03T00:53:04;6.30;99.90
22968;DHT22;11650;48.106;-1.696;2023-04-03T00:55:32;6.30;99.90
22968;DHT22;11650;48.106;-1.696;2023-04-03T00:58:00;6.20;99.90
22968;DHT22;11650;48.106;-1.696;2023-04-03T01:00:26;6.20;99.90
22968;DHT22;11650;48.106;-1.696;2023-04-03T01:02:52;6.10;99.90
22968;DHT22;11650;48.106;-1.696;2023-04-03T01:05:19;6.10;99.90
22968;DHT22;11650;48.106;-1.696;2023-04-03T01:07:46;6.20;99.90
22968;DHT22;11650;48.106;-1.696;2023-04-03T01:10:15;6.20;99.90
22968;DHT22;11650;48.106;-1.696;2023-04-03T01:12:43;6.10;99.90
22968;DHT22;11650;48.106;-1.696;2023-04-03T01:15:13;6.10;99.90
22968;DHT22;11650;48.106;-1.696;2023-04-03T01:17:51;6.10;99.90
22968;DHT22;11650;48.106;-1.696;2023-04-03T01:25:48;6.00;99.90
22968;DHT22;11650;48.106;-1.696;2023-04-03T01:28:22;5.90;99.90
22968;DHT22;11650;48.106;-1.696;2023-04-03T01:33:41;6.00;99.90
22968;DHT22;11650;48.106;-1.696;2023-04-03T01:36:10;5.90;99.90
22968;DHT22;11650;48.106;-1.696;2023-04-03T01:38:38;5.90;99.90
22968;DHT22;11650;48.106;-1.696;2023-04-03T01:41:04;5.90;99.90
22968;DHT22;11650;48.106;-1.696;2023-04-03T01:43:29;5.90;99.90
22968;DHT22;11650;48.106;-1.696;2023-04-03T01:45:55;5.80;99.90
22968;DHT22;11650;48.106;-1.696;2023-04-03T01:48:21;5.80;99.90
22968;DHT22;11650;48.106;-1.696;2023-04-03T01:50:46;5.80;99.90
22968;DHT22;11650;48.106;-1.696;2023-04-03T01:53:12;5.70;99.90
22968;DHT22;11650;48.106;-1.696;2023-04-03T01:55:38;5.80;99.90
22968;DHT22;11650;48.106;-1.696;2023-04-03T01:58:04;5.80;99.90
22968;DHT22;11650;48.106;-1.696;2023-04-03T02:00:30;5.80;99.90
22968;DHT22;11650;48.106;-1.696;2023-04-03T02:02:56;5.80;99.90
22968;DHT22;11650;48.106;-1.696;2023-04-03T02:05:22;5.80;99.90
22968;DHT22;11650;48.106;-1.696;2023-04-03T02:07:48;5.90;99.90
22968;DHT22;11650;48.106;-1.696;2023-04-03T02:10:14;5.90;99.90
22968;DHT22;11650;48.106;-1.696;2023-04-03T02:12:39;5.80;99.90
22968;DHT22;11650;48.106;-1.696;2023-04-03T02:15:06;5.90;99.90
22968;DHT22;11650;48.106;-1.696;2023-04-03T02:17:31;5.80;99.90
22968;DHT22;11650;48.106;-1.696;2023-04-03T02:19:57;5.80;99.90
22968;DHT22;11650;48.106;-1.696;2023-04-03T02:22:23;5.80;99.90
22968;DHT22;11650;48.106;-1.696;2023-04-03T02:24:48;5.70;99.90
22968;DHT22;11650;48.106;-1.696;2023-04-03T02:27:14;5.70;99.90
22968;DHT22;11650;48.106;-1.696;2023-04-03T02:29:40;5.60;99.90
22968;DHT22;11650;48.106;-1.696;2023-04-03T02:32:05;5.60;99.90
22968;DHT22;11650;48.106;-1.696;2023-04-03T02:34:31;5.60;99.90
22968;DHT22;11650;48.106;-1.696;2023-04-03T02:36:57;5.50;99.90
22968;DHT22;11650;48.106;-1.696;2023-04-03T02:39:22;5.50;99.90
22968;DHT22;11650;48.106;-1.696;2023-04-03T02:41:48;5.50;99.90
22968;DHT22;11650;48.106;-1.696;2023-04-03T02:44:14;5.50;99.90
22968;DHT22;11650;48.106;-1.696;2023-04-03T02:46:40;5.50;99.90
22968;DHT22;11650;48.106;-1.696;2023-04-03T02:49:05;5.50;99.90
22968;DHT22;11650;48.106;-1.696;2023-04-03T02:51:32;5.50;99.90
22968;DHT22;11650;48.106;-1.696;2023-04-03T02:53:58;5.50;99.90
22968;DHT22;11650;48.106;-1.696;2023-04-03T02:56:23;5.50;99.90
22968;DHT22;11650;48.106;-1.696;2023-04-03T02:58:49;5.50;99.90
22968;DHT22;11650;48.106;-1.696;2023-04-03T03:01:15;5.50;99.90
22968;DHT22;11650;48.106;-1.696;2023-04-03T03:03:41;5.50;99.90
22968;DHT22;11650;48.106;-1.696;2023-04-03T03:06:09;5.50;99.90
22968;DHT22;11650;48.106;-1.696;2023-04-03T03:08:35;5.60;99.90
22968;DHT22;11650;48.106;-1.696;2023-04-03T03:11:01;5.60;99.90
22968;DHT22;11650;48.106;-1.696;2023-04-03T03:13:26;5.60;99.90
22968;DHT22;11650;48.106;-1.696;2023-04-03T03:15:52;5.60;99.90
22968;DHT22;11650;48.106;-1.696;2023-04-03T03:18:18;5.50;99.90
22968;DHT22;11650;48.106;-1.696;2023-04-03T03:20:43;5.50;99.90
22968;DHT22;11650;48.106;-1.696;2023-04-03T03:23:09;5.50;99.90
22968;DHT22;11650;48.106;-1.696;2023-04-03T03:25:40;5.50;99.90
22968;DHT22;11650;48.106;-1.696;2023-04-03T03:28:06;5.60;99.90
22968;DHT22;11650;48.106;-1.696;2023-04-03T03:30:32;5.60;99.90
22968;DHT22;11650;48.106;-1.696;2023-04-03T03:32:58;5.50;99.90
22968;DHT22;11650;48.106;-1.696;2023-04-03T03:35:23;5.50;99.90
22968;DHT22;11650;48.106;-1.696;2023-04-03T03:37:49;5.50;99.90
22968;DHT22;11650;48.106;-1.696;2023-04-03T03:40:14;5.30;99.90
22968;DHT22;11650;48.106;-1.696;2023-04-03T03:42:40;5.20;99.90
22968;DHT22;11650;48.106;-1.696;2023-04-03T03:45:07;5.20;99.90
22968;DHT22;11650;48.106;-1.696;2023-04-03T03:47:32;5.10;99.90
22968;DHT22;11650;48.106;-1.696;2023-04-03T03:49:58;5.10;99.90
22968;DHT22;11650;48.106;-1.696;2023-04-03T03:52:24;5.00;99.90
22968;DHT22;11650;48.106;-1.696;2023-04-03T03:54:50;5.00;99.90
22968;DHT22;11650;48.106;-1.696;2023-04-03T03:57:15;5.00;99.90
22968;DHT22;11650;48.106;-1.696;2023-04-03T03:59:41;4.90;99.90
22968;DHT22;11650;48.106;-1.696;2023-04-03T04:02:08;4.90;99.90
22968;DHT22;11650;48.106;-1.696;2023-04-03T04:04:33;4.80;99.90
22968;DHT22;11650;48.106;-1.696;2023-04-03T04:06:59;4.80;99.90
22968;DHT22;11650;48.106;-1.696;2023-04-03T04:09:26;4.80;99.90
22968;DHT22;11650;48.106;-1.696;2023-04-03T04:11:52;4.80;99.90
22968;DHT22;11650;48.106;-1.696;2023-04-03T04:14:18;4.70;99.90
22968;DHT22;11650;48.106;-1.696;2023-04-03T04:16:46;4.70;99.90
22968;DHT22;11650;48.106;-1.696;2023-04-03T04:19:12;4.70;99.90
22968;DHT22;11650;48.106;-1.696;2023-04-03T04:21:38;4.70;99.90
22968;DHT22;11650;48.106;-1.696;2023-04-03T04:24:05;4.60;99.90
22968;DHT22;11650;48.106;-1.696;2023-04-03T04:26:31;4.60;99.90
22968;DHT22;11650;48.106;-1.696;2023-04-03T04:28:57;4.60;99.90
22968;DHT22;11650;48.106;-1.696;2023-04-03T04:31:22;4.50;99.90
22968;DHT22;11650;48.106;-1.696;2023-04-03T04:33:48;4.60;99.90
22968;DHT22;11650;48.106;-1.696;2023-04-03T04:36:14;4.50;99.90
22968;DHT22;11650;48.106;-1.696;2023-04-03T04:38:40;4.60;99.90
22968;DHT22;11650;48.106;-1.696;2023-04-03T04:41:06;4.50;99.90
22968;DHT22;11650;48.106;-1.696;2023-04-03T04:43:32;4.50;99.90
22968;DHT22;11650;48.106;-1.696;2023-04-03T04:46:03;4.50;99.90
22968;DHT22;11650;48.106;-1.696;2023-04-03T04:48:29;4.50;99.90
22968;DHT22;11650;48.106;-1.696;2023-04-03T04:50:54;4.50;99.90
22968;DHT22;11650;48.106;-1.696;2023-04-03T04:53:20;4.50;99.90
22968;DHT22;11650;48.106;-1.696;2023-04-03T04:55:46;4.50;99.90
22968;DHT22;11650;48.106;-1.696;2023-04-03T04:58:11;4.50;99.90
22968;DHT22;11650;48.106;-1.696;2023-04-03T05:00:37;4.50;99.90
22968;DHT22;11650;48.106;-1.696;2023-04-03T05:03:03;4.50;99.90
22968;DHT22;11650;48.106;-1.696;2023-04-03T05:05:28;4.50;99.90
22968;DHT22;11650;48.106;-1.696;2023-04-03T05:07:54;4.50;99.90
22968;DHT22;11650;48.106;-1.696;2023-04-03T05:10:20;4.50;99.90
22968;DHT22;11650;48.106;-1.696;2023-04-03T05:12:46;4.50;99.90
22968;DHT22;11650;48.106;-1.696;2023-04-03T05:15:11;4.50;99.90
22968;DHT22;11650;48.106;-1.696;2023-04-03T05:17:37;4.40;99.90
22968;DHT22;11650;48.106;-1.696;2023-04-03T05:20:04;4.40;99.90
22968;DHT22;11650;48.106;-1.696;2023-04-03T05:22:30;4.40;99.90
22968;DHT22;11650;48.106;-1.696;2023-04-03T05:24:56;4.40;99.90
22968;DHT22;11650;48.106;-1.696;2023-04-03T05:27:22;4.50;99.90
22968;DHT22;11650;48.106;-1.696;2023-04-03T05:29:49;4.50;99.90
22968;DHT22;11650;48.106;-1.696;2023-04-03T05:32:15;4.50;99.90
22968;DHT22;11650;48.106;-1.696;2023-04-03T05:34:41;4.50;99.90
22968;DHT22;11650;48.106;-1.696;2023-04-03T05:37:07;4.60;99.90
22968;DHT22;11650;48.106;-1.696;2023-04-03T05:39:33;4.50;99.90
22968;DHT22;11650;48.106;-1.696;2023-04-03T05:41:59;4.60;99.90
22968;DHT22;11650;48.106;-1.696;2023-04-03T05:44:25;4.50;99.90
22968;DHT22;11650;48.106;-1.696;2023-04-03T05:46:50;4.60;99.90
22968;DHT22;11650;48.106;-1.696;2023-04-03T05:49:16;4.60;99.90
22968;DHT22;11650;48.106;-1.696;2023-04-03T05:51:42;4.60;99.90
22968;DHT22;11650;48.106;-1.696;2023-04-03T05:54:22;4.60;99.90
22968;DHT22;11650;48.106;-1.696;2023-04-03T05:56:49;4.70;99.90
22968;DHT22;11650;48.106;-1.696;2023-04-03T05:59:16;4.80;99.90
22968;DHT22;11650;48.106;-1.696;2023-04-03T06:01:41;4.80;99.90
22968;DHT22;11650;48.106;-1.696;2023-04-03T06:04:07;4.90;99.90
22968;DHT22;11650;48.106;-1.696;2023-04-03T06:06:52;5.00;99.90
22968;DHT22;11650;48.106;-1.696;2023-04-03T06:09:20;5.00;99.90
22968;DHT22;11650;48.106;-1.696;2023-04-03T06:11:46;5.00;99.90
22968;DHT22;11650;48.106;-1.696;2023-04-03T06:14:12;5.00;99.90
22968;DHT22;11650;48.106;-1.696;2023-04-03T06:16:38;5.10;99.90
22968;DHT22;11650;48.106;-1.696;2023-04-03T06:19:04;5.10;99.90
22968;DHT22;11650;48.106;-1.696;2023-04-03T06:21:31;5.20;99.90
22968;DHT22;11650;48.106;-1.696;2023-04-03T06:23:57;5.10;99.90
22968;DHT22;11650;48.106;-1.696;2023-04-03T06:26:23;5.10;99.90
22968;DHT22;11650;48.106;-1.696;2023-04-03T06:28:48;5.20;99.90
22968;DHT22;11650;48.106;-1.696;2023-04-03T06:31:14;5.30;99.90
22968;DHT22;11650;48.106;-1.696;2023-04-03T06:33:40;5.20;99.90
22968;DHT22;11650;48.106;-1.696;2023-04-03T06:36:06;5.20;99.90
22968;DHT22;11650;48.106;-1.696;2023-04-03T06:38:33;5.30;99.90
22968;DHT22;11650;48.106;-1.696;2023-04-03T06:40:59;5.30;99.90
22968;DHT22;11650;48.106;-1.696;2023-04-03T06:43:25;5.30;99.90
22968;DHT22;11650;48.106;-1.696;2023-04-03T06:45:51;5.50;99.90
22968;DHT22;11650;48.106;-1.696;2023-04-03T06:48:17;5.50;99.90
22968;DHT22;11650;48.106;-1.696;2023-04-03T06:50:42;5.40;99.90
22968;DHT22;11650;48.106;-1.696;2023-04-03T06:53:08;5.40;99.90
22968;DHT22;11650;48.106;-1.696;2023-04-03T06:55:35;5.50;99.90
22968;DHT22;11650;48.106;-1.696;2023-04-03T06:58:01;5.60;99.90
22968;DHT22;11650;48.106;-1.696;2023-04-03T07:00:27;5.60;99.90
22968;DHT22;11650;48.106;-1.696;2023-04-03T07:02:53;5.70;99.90
22968;DHT22;11650;48.106;-1.696;2023-04-03T07:05:19;5.70;99.90
22968;DHT22;11650;48.106;-1.696;2023-04-03T07:07:45;5.80;99.90
22968;DHT22;11650;48.106;-1.696;2023-04-03T07:10:10;5.80;99.90
22968;DHT22;11650;48.106;-1.696;2023-04-03T07:12:37;5.80;99.90
22968;DHT22;11650;48.106;-1.696;2023-04-03T07:15:07;5.70;99.90
22968;DHT22;11650;48.106;-1.696;2023-04-03T07:17:33;5.80;99.90
22968;DHT22;11650;48.106;-1.696;2023-04-03T07:19:59;5.90;99.90
22968;DHT22;11650;48.106;-1.696;2023-04-03T07:22:25;6.00;99.90
22968;DHT22;11650;48.106;-1.696;2023-04-03T07:24:50;5.90;99.90
22968;DHT22;11650;48.106;-1.696;2023-04-03T07:27:16;5.70;99.90
22968;DHT22;11650;48.106;-1.696;2023-04-03T07:29:43;5.70;99.90
22968;DHT22;11650;48.106;-1.696;2023-04-03T07:32:09;5.90;99.90
22968;DHT22;11650;48.106;-1.696;2023-04-03T07:34:36;6.00;99.90
22968;DHT22;11650;48.106;-1.696;2023-04-03T07:37:02;6.00;99.90
22968;DHT22;11650;48.106;-1.696;2023-04-03T07:39:29;6.10;99.90
22968;DHT22;11650;48.106;-1.696;2023-04-03T07:41:54;6.20;99.90
22968;DHT22;11650;48.106;-1.696;2023-04-03T07:44:23;6.20;99.90
22968;DHT22;11650;48.106;-1.696;2023-04-03T07:46:49;6.20;99.90
22968;DHT22;11650;48.106;-1.696;2023-04-03T07:49:16;6.30;99.90
22968;DHT22;11650;48.106;-1.696;2023-04-03T07:51:44;6.30;99.90
22968;DHT22;11650;48.106;-1.696;2023-04-03T07:54:10;6.10;99.90
22968;DHT22;11650;48.106;-1.696;2023-04-03T07:56:37;6.30;99.90
22968;DHT22;11650;48.106;-1.696;2023-04-03T07:59:03;6.40;99.90
22968;DHT22;11650;48.106;-1.696;2023-04-03T08:01:28;6.50;99.90
22968;DHT22;11650;48.106;-1.696;2023-04-03T08:03:57;6.40;99.90
22968;DHT22;11650;48.106;-1.696;2023-04-03T08:06:23;6.30;99.90
22968;DHT22;11650;48.106;-1.696;2023-04-03T08:08:49;6.30;99.90
22968;DHT22;11650;48.106;-1.696;2023-04-03T08:11:14;6.50;99.90
22968;DHT22;11650;48.106;-1.696;2023-04-03T08:13:40;6.60;99.90
22968;DHT22;11650;48.106;-1.696;2023-04-03T08:16:17;6.50;99.90
22968;DHT22;11650;48.106;-1.696;2023-04-03T08:18:43;6.60;99.90
22968;DHT22;11650;48.106;-1.696;2023-04-03T08:21:10;6.70;99.90
22968;DHT22;11650;48.106;-1.696;2023-04-03T08:23:37;6.70;99.90
22968;DHT22;11650;48.106;-1.696;2023-04-03T08:26:11;6.70;99.90
22968;DHT22;11650;48.106;-1.696;2023-04-03T08:28:38;6.80;99.90
22968;DHT22;11650;48.106;-1.696;2023-04-03T08:31:09;6.90;99.90
22968;DHT22;11650;48.106;-1.696;2023-04-03T08:33:37;7.00;99.90
22968;DHT22;11650;48.106;-1.696;2023-04-03T08:36:07;7.00;99.90
22968;DHT22;11650;48.106;-1.696;2023-04-03T08:38:33;6.90;99.90
22968;DHT22;11650;48.106;-1.696;2023-04-03T08:41:22;6.90;99.90
22968;DHT22;11650;48.106;-1.696;2023-04-03T08:49:59;6.80;99.90
22968;DHT22;11650;48.106;-1.696;2023-04-03T08:52:21;6.80;99.90
22968;DHT22;11650;48.106;-1.696;2023-04-03T08:55:02;7.00;99.90
22968;DHT22;11650;48.106;-1.696;2023-04-03T08:57:44;6.90;99.90
22968;DHT22;11650;48.106;-1.696;2023-04-03T09:02:53;6.80;99.90
22968;DHT22;11650;48.106;-1.696;2023-04-03T09:05:32;6.90;99.90
22968;DHT22;11650;48.106;-1.696;2023-04-03T09:08:12;6.90;99.90
22968;DHT22;11650;48.106;-1.696;2023-04-03T09:10:40;7.00;99.90
22968;DHT22;11650;48.106;-1.696;2023-04-03T09:15:57;7.20;99.90
22968;DHT22;11650;48.106;-1.696;2023-04-03T09:18:28;7.00;99.90
22968;DHT22;11650;48.106;-1.696;2023-04-03T09:20:58;7.20;99.90
22968;DHT22;11650;48.106;-1.696;2023-04-03T09:26:11;7.10;99.90
22968;DHT22;11650;48.106;-1.696;2023-04-03T09:28:41;6.90;99.90
22968;DHT22;11650;48.106;-1.696;2023-04-03T09:31:40;6.90;99.90
22968;DHT22;11650;48.106;-1.696;2023-04-03T09:34:20;7.20;99.90
22968;DHT22;11650;48.106;-1.696;2023-04-03T09:36:52;7.20;99.90
22968;DHT22;11650;48.106;-1.696;2023-04-03T09:39:20;7.30;99.90
22968;DHT22;11650;48.106;-1.696;2023-04-03T09:41:59;7.30;99.90
22968;DHT22;11650;48.106;-1.696;2023-04-03T09:46:55;7.60;99.90
22968;DHT22;11650;48.106;-1.696;2023-04-03T09:49:21;7.60;99.90
22968;DHT22;11650;48.106;-1.696;2023-04-03T09:51:47;7.60;99.90
22968;DHT22;11650;48.106;-1.696;2023-04-03T09:54:35;7.70;99.90
22968;DHT22;11650;48.106;-1.696;2023-04-03T09:57:13;7.70;99.90
22968;DHT22;11650;48.106;-1.696;2023-04-03T10:00:00;7.60;99.90
22968;DHT22;11650;48.106;-1.696;2023-04-03T10:02:38;7.80;99.90
22968;DHT22;11650;48.106;-1.696;2023-04-03T10:10:45;7.40;99.90
22968;DHT22;11650;48.106;-1.696;2023-04-03T10:15:45;7.50;99.90
22968;DHT22;11650;48.106;-1.696;2023-04-03T10:18:40;7.70;99.90
22968;DHT22;11650;48.106;-1.696;2023-04-03T10:28:14;8.20;99.90
22968;DHT22;11650;48.106;-1.696;2023-04-03T10:36:07;8.40;99.90
22968;DHT22;11650;48.106;-1.696;2023-04-03T10:49:56;8.60;99.90
22968;DHT22;11650;48.106;-1.696;2023-04-03T10:52:59;8.90;99.90
22968;DHT22;11650;48.106;-1.696;2023-04-03T10:57:55;9.10;99.90
22968;DHT22;11650;48.106;-1.696;2023-04-03T11:00:43;9.10;99.90
22968;DHT22;11650;48.106;-1.696;2023-04-03T11:03:35;9.40;99.90
22968;DHT22;11650;48.106;-1.696;2023-04-03T11:06:04;9.50;99.90
22968;DHT22;11650;48.106;-1.696;2023-04-03T11:08:53;9.60;99.90
22968;DHT22;11650;48.106;-1.696;2023-04-03T11:11:27;9.80;99.90
22968;DHT22;11650;48.106;-1.696;2023-04-03T11:14:02;9.70;99.90
22968;DHT22;11650;48.106;-1.696;2023-04-03T11:16:31;9.50;99.90
22968;DHT22;11650;48.106;-1.696;2023-04-03T11:19:05;9.60;99.90
22968;DHT22;11650;48.106;-1.696;2023-04-03T11:21:41;9.50;99.90
22968;DHT22;11650;48.106;-1.696;2023-04-03T11:24:20;9.90;99.90
22968;DHT22;11650;48.106;-1.696;2023-04-03T11:26:49;10.50;99.90
22968;DHT22;11650;48.106;-1.696;2023-04-03T11:29:19;10.70;99.90
22968;DHT22;11650;48.106;-1.696;2023-04-03T11:37:00;11.40;99.90
22968;DHT22;11650;48.106;-1.696;2023-04-03T11:39:35;11.00;99.90
22968;DHT22;11650;48.106;-1.696;2023-04-03T11:42:39;10.50;99.90
22968;DHT22;11650;48.106;-1.696;2023-04-03T11:48:02;11.30;99.90
22968;DHT22;11650;48.106;-1.696;2023-04-03T12:00:52;11.60;99.90
22968;DHT22;11650;48.106;-1.696;2023-04-03T12:19:03;12.40;99.90
22968;DHT22;11650;48.106;-1.696;2023-04-03T12:32:10;12.80;99.90
22968;DHT22;11650;48.106;-1.696;2023-04-03T12:40:31;13.70;99.90
22968;DHT22;11650;48.106;-1.696;2023-04-03T12:43:21;13.60;99.90
22968;DHT22;11650;48.106;-1.696;2023-04-03T12:48:27;13.20;99.90
22968;DHT22;11650;48.106;-1.696;2023-04-03T12:50:54;13.60;99.90
22968;DHT22;11650;48.106;-1.696;2023-04-03T12:53:28;13.90;99.90
22968;DHT22;11650;48.106;-1.696;2023-04-03T12:58:44;14.40;99.90
22968;DHT22;11650;48.106;-1.696;2023-04-03T13:01:13;14.90;99.90
22968;DHT22;11650;48.106;-1.696;2023-04-03T13:03:43;14.90;99.90
22968;DHT22;11650;48.106;-1.696;2023-04-03T13:06:24;15.10;99.90
22968;DHT22;11650;48.106;-1.696;2023-04-03T13:08:56;15.30;99.90
22968;DHT22;11650;48.106;-1.696;2023-04-03T13:11:25;16.10;99.90
22968;DHT22;11650;48.106;-1.696;2023-04-03T13:14:13;16.90;99.90
22968;DHT22;11650;48.106;-1.696;2023-04-03T13:16:39;17.50;99.90
22968;DHT22;11650;48.106;-1.696;2023-04-03T13:19:16;17.70;99.90
22968;DHT22;11650;48.106;-1.696;2023-04-03T13:21:42;17.00;99.90
22968;DHT22;11650;48.106;-1.696;2023-04-03T13:24:09;17.50;99.90
22968;DHT22;11650;48.106;-1.696;2023-04-03T13:26:35;18.20;99.90
22968;DHT22;11650;48.106;-1.696;2023-04-03T13:29:06;18.60;99.90
22968;DHT22;11650;48.106;-1.696;2023-04-03T13:31:34;17.80;99.90
22968;DHT22;11650;48.106;-1.696;2023-04-03T13:34:16;18.30;99.90
22968;DHT22;11650;48.106;-1.696;2023-04-03T13:41:48;18.60;99.90
22968;DHT22;11650;48.106;-1.696;2023-04-03T13:46:49;19.30;99.90
22968;DHT22;11650;48.106;-1.696;2023-04-03T13:49:27;19.10;99.90
22968;DHT22;11650;48.106;-1.696;2023-04-03T13:51:54;19.50;99.90
22968;DHT22;11650;48.106;-1.696;2023-04-03T13:54:29;19.30;99.90
22968;DHT22;11650;48.106;-1.696;2023-04-03T13:56:57;19.60;99.90
22968;DHT22;11650;48.106;-1.696;2023-04-03T13:59:35;20.10;99.90
22968;DHT22;11650;48.106;-1.696;2023-04-03T14:04:50;20.50;99.90
22968;DHT22;11650;48.106;-1.696;2023-04-03T14:07:18;20.80;99.90
22968;DHT22;11650;48.106;-1.696;2023-04-03T14:09:45;20.90;99.90
22968;DHT22;11650;48.106;-1.696;2023-04-03T14:12:25;20.40;99.90
22968;DHT22;11650;48.106;-1.696;2023-04-03T14:14:52;19.90;99.90
22968;DHT22;11650;48.106;-1.696;2023-04-03T14:17:23;19.30;99.90
22968;DHT22;11650;48.106;-1.696;2023-04-03T14:19:50;19.60;99.90
22968;DHT22;11650;48.106;-1.696;2023-04-03T14:22:21;19.70;99.90
22968;DHT22;11650;48.106;-1.696;2023-04-03T14:24:48;21.00;99.90
22968;DHT22;11650;48.106;-1.696;2023-04-03T14:27:21;20.70;99.90
22968;DHT22;11650;48.106;-1.696;2023-04-03T14:29:50;20.50;99.90
22968;DHT22;11650;48.106;-1.696;2023-04-03T14:32:17;21.30;99.90
22968;DHT22;11650;48.106;-1.696;2023-04-03T14:34:43;21.70;99.90
22968;DHT22;11650;48.106;-1.696;2023-04-03T14:37:12;21.90;99.90
22968;DHT22;11650;48.106;-1.696;2023-04-03T14:39:39;22.80;99.90
22968;DHT22;11650;48.106;-1.696;2023-04-03T14:42:04;22.60;99.90
22968;DHT22;11650;48.106;-1.696;2023-04-03T14:44:30;22.40;99.90
22968;DHT22;11650;48.106;-1.696;2023-04-03T14:46:56;22.00;99.90
22968;DHT22;11650;48.106;-1.696;2023-04-03T14:49:25;22.20;99.90
22968;DHT22;11650;48.106;-1.696;2023-04-03T14:51:51;22.80;99.90
22968;DHT22;11650;48.106;-1.696;2023-04-03T14:54:20;22.50;99.90
22968;DHT22;11650;48.106;-1.696;2023-04-03T14:56:51;22.40;99.90
22968;DHT22;11650;48.106;-1.696;2023-04-03T14:59:17;23.60;99.90
22968;DHT22;11650;48.106;-1.696;2023-04-03T15:01:45;23.90;99.90
22968;DHT22;11650;48.106;-1.696;2023-04-03T15:04:16;23.80;99.90
22968;DHT22;11650;48.106;-1.696;2023-04-03T15:06:44;23.60;99.90
22968;DHT22;11650;48.106;-1.696;2023-04-03T15:09:24;24.30;99.90
22968;DHT22;11650;48.106;-1.696;2023-04-03T15:11:52;24.40;99.90
22968;DHT22;11650;48.106;-1.696;2023-04-03T15:14:19;23.90;99.90
22968;DHT22;11650;48.106;-1.696;2023-04-03T15:16:45;23.60;99.90
22968;DHT22;11650;48.106;-1.696;2023-04-03T15:19:11;23.70;99.90
22968;DHT22;11650;48.106;-1.696;2023-04-03T15:21:38;23.90;99.90
22968;DHT22;11650;48.106;-1.696;2023-04-03T15:24:03;24.20;99.90
22968;DHT22;11650;48.106;-1.696;2023-04-03T15:26:29;24.70;99.90
22968;DHT22;11650;48.106;-1.696;2023-04-03T15:28:55;24.30;99.90
22968;DHT22;11650;48.106;-1.696;2023-04-03T15:31:21;24.90;99.70
22968;DHT22;11650;48.106;-1.696;2023-04-03T15:33:47;24.50;99.60
22968;DHT22;11650;48.106;-1.696;2023-04-03T15:36:12;24.20;99.90
22968;DHT22;11650;48.106;-1.696;2023-04-03T15:38:38;24.10;99.90
22968;DHT22;11650;48.106;-1.696;2023-04-03T15:41:04;24.80;99.60
22968;DHT22;11650;48.106;-1.696;2023-04-03T15:43:30;24.90;98.90
22968;DHT22;11650;48.106;-1.696;2023-04-03T15:45:57;24.20;99.90
22968;DHT22;11650;48.106;-1.696;2023-04-03T15:48:23;24.70;98.50
22968;DHT22;11650;48.106;-1.696;2023-04-03T15:50:49;25.10;98.70
22968;DHT22;11650;48.106;-1.696;2023-04-03T15:53:14;25.40;98.30
22968;DHT22;11650;48.106;-1.696;2023-04-03T15:55:40;25.50;98.10
22968;DHT22;11650;48.106;-1.696;2023-04-03T15:58:06;26.00;97.70
22968;DHT22;11650;48.106;-1.696;2023-04-03T16:00:32;25.70;97.30
22968;DHT22;11650;48.106;-1.696;2023-04-03T16:03:09;26.00;96.40
22968;DHT22;11650;48.106;-1.696;2023-04-03T16:05:37;26.30;96.20
22968;DHT22;11650;48.106;-1.696;2023-04-03T16:08:04;26.20;95.90
22968;DHT22;11650;48.106;-1.696;2023-04-03T16:10:30;25.00;97.40
22968;DHT22;11650;48.106;-1.696;2023-04-03T16:12:56;26.00;97.00
22968;DHT22;11650;48.106;-1.696;2023-04-03T16:15:23;26.50;96.50
22968;DHT22;11650;48.106;-1.696;2023-04-03T16:17:50;25.90;96.40
22968;DHT22;11650;48.106;-1.696;2023-04-03T16:20:16;25.60;97.70
22968;DHT22;11650;48.106;-1.696;2023-04-03T16:22:43;25.80;97.40
22968;DHT22;11650;48.106;-1.696;2023-04-03T16:25:10;26.30;96.10
22968;DHT22;11650;48.106;-1.696;2023-04-03T16:27:36;25.00;96.70
22968;DHT22;11650;48.106;-1.696;2023-04-03T16:30:02;24.80;97.90
22968;DHT22;11650;48.106;-1.696;2023-04-03T16:32:30;25.50;96.90
22968;DHT22;11650;48.106;-1.696;2023-04-03T16:34:57;25.80;95.80
22968;DHT22;11650;48.106;-1.696;2023-04-03T16:37:23;25.90;96.60
22968;DHT22;11650;48.106;-1.696;2023-04-03T16:39:49;26.30;97.00
22968;DHT22;11650;48.106;-1.696;2023-04-03T16:42:15;25.70;97.00
22968;DHT22;11650;48.106;-1.696;2023-04-03T16:44:41;26.40;96.60
22968;DHT22;11650;48.106;-1.696;2023-04-03T16:47:06;25.70;96.30
22968;DHT22;11650;48.106;-1.696;2023-04-03T16:49:33;26.50;96.00
22968;DHT22;11650;48.106;-1.696;2023-04-03T16:52:00;26.60;95.60
22968;DHT22;11650;48.106;-1.696;2023-04-03T16:54:26;26.40;96.70
22968;DHT22;11650;48.106;-1.696;2023-04-03T16:56:52;26.40;95.80
22968;DHT22;11650;48.106;-1.696;2023-04-03T16:59:18;25.80;97.10
22968;DHT22;11650;48.106;-1.696;2023-04-03T17:01:43;25.50;96.40
22968;DHT22;11650;48.106;-1.696;2023-04-03T17:04:09;26.00;96.00
22968;DHT22;11650;48.106;-1.696;2023-04-03T17:06:35;25.90;95.30
22968;DHT22;11650;48.106;-1.696;2023-04-03T17:09:01;25.20;96.50
22968;DHT22;11650;48.106;-1.696;2023-04-03T17:11:30;25.00;96.30
22968;DHT22;11650;48.106;-1.696;2023-04-03T17:13:56;25.40;96.20
22968;DHT22;11650;48.106;-1.696;2023-04-03T17:16:22;25.80;96.60
22968;DHT22;11650;48.106;-1.696;2023-04-03T17:18:48;25.60;96.30
22968;DHT22;11650;48.106;-1.696;2023-04-03T17:21:15;25.20;96.10
22968;DHT22;11650;48.106;-1.696;2023-04-03T17:23:44;24.90;96.20
22968;DHT22;11650;48.106;-1.696;2023-04-03T17:26:11;24.60;95.90
22968;DHT22;11650;48.106;-1.696;2023-04-03T17:28:36;23.80;96.20
22968;DHT22;11650;48.106;-1.696;2023-04-03T17:31:03;23.10;97.10
22968;DHT22;11650;48.106;-1.696;2023-04-03T17:33:29;23.10;97.40
22968;DHT22;11650;48.106;-1.696;2023-04-03T17:35:59;23.10;97.60
22968;DHT22;11650;48.106;-1.696;2023-04-03T17:38:29;23.70;98.00